createdAt,value
2023-03-03T00:03:11.274Z,93.08
2023-03-03T00:08:12.779Z,92.55
2023-03-03T00:13:19.993Z,92.94
2023-03-03T00:18:28.650Z,93.24
2023-03-03T00:23:43.131Z,92.40
2023-03-03T00:28:47.187Z,91.69
2023-03-03T00:33:55.636Z,92.94
2023-03-03T00:39:31.448Z,92.86
2023-03-03T00:45:00.140Z,92.67
2023-03-03T00:50:07.552Z,92.95
2023-03-03T00:55:09.097Z,92.72
2023-03-03T01:00:11.630Z,92.87
2023-03-03T01:05:15.181Z,93.79
2023-03-03T01:10:18.215Z,93.22
2023-03-03T01:15:19.694Z,93.12
2023-03-03T01:20:21.869Z,91.98
2023-03-03T01:25:23.572Z,91.51
2023-03-03T01:30:25.742Z,91.91
2023-03-03T01:35:27.276Z,93.31
2023-03-03T01:40:31.006Z,92.92
2023-03-03T01:45:53.770Z,91.72
2023-03-03T01:51:00.144Z,91.85
2023-03-03T01:56:02.875Z,92.31
2023-03-03T02:01:13.420Z,91.91
2023-03-03T02:06:17.663Z,92.13
2023-03-03T02:11:21.347Z,91.98
2023-03-03T02:16:22.826Z,92.44
2023-03-03T02:21:28.126Z,92.76
2023-03-03T02:26:32.103Z,92.21
2023-03-03T02:31:38.675Z,92.75
2023-03-03T02:36:40.448Z,91.88
2023-03-03T02:41:58.818Z,91.92
2023-03-03T02:47:06.804Z,91.82
2023-03-03T02:52:10.543Z,92.58
2023-03-03T02:57:14.675Z,92.06
2023-03-03T03:02:16.216Z,92.72
2023-03-03T03:07:17.822Z,92.72
2023-03-03T03:12:21.088Z,92.88
2023-03-03T03:17:26.169Z,93.65
2023-03-03T03:22:28.944Z,92.69
2023-03-03T03:27:30.790Z,93.53
2023-03-03T03:32:32.393Z,93.11
2023-03-03T03:37:35.028Z,93.68
2023-03-03T03:42:39.502Z,93.33
2023-03-03T03:47:42.455Z,93.32
2023-03-03T03:52:44.793Z,93.60
2023-03-03T03:57:47.034Z,93.49
2023-03-03T04:02:48.930Z,93.80
2023-03-03T04:07:52.366Z,94.24
2023-03-03T04:12:54.550Z,94.03
2023-03-03T04:17:56.966Z,93.88
2023-03-03T04:22:59.017Z,92.89
2023-03-03T04:28:01.108Z,92.96
2023-03-03T04:33:02.714Z,92.81
2023-03-03T04:38:05.875Z,92.50
2023-03-03T04:43:10.110Z,92.47
2023-03-03T04:48:11.983Z,92.59
2023-03-03T04:53:13.759Z,92.67
2023-03-03T04:58:16.830Z,92.29
2023-03-03T05:03:19.443Z,92.10
2023-03-03T05:08:21.075Z,92.12
2023-03-03T05:13:22.818Z,93.12
2023-03-03T05:18:26.024Z,93.28
2023-03-03T05:23:27.433Z,94.64
2023-03-03T05:28:28.952Z,93.78
2023-03-03T05:33:30.501Z,94.65
2023-03-03T05:38:31.949Z,94.20
2023-03-03T05:43:33.658Z,93.71
2023-03-03T05:48:35.057Z,93.96
2023-03-03T05:53:36.626Z,93.77
2023-03-03T05:58:38.191Z,93.82
2023-03-03T06:03:39.745Z,94.50
2023-03-03T06:08:41.162Z,94.13
2023-03-03T06:13:42.615Z,93.80
2023-03-03T06:18:44.017Z,94.58
2023-03-03T06:23:45.434Z,94.49
2023-03-03T06:28:47.083Z,94.21
2023-03-03T06:33:49.736Z,94.13
2023-03-03T06:38:51.629Z,94.18
2023-03-03T06:43:53.493Z,92.26
2023-03-03T06:48:55.115Z,93.08
2023-03-03T06:53:58.289Z,93.42
2023-03-03T06:59:00.620Z,93.74
2023-03-03T07:04:10.634Z,94.01
2023-03-03T07:09:21.316Z,94.92
2023-03-03T07:14:22.808Z,94.25
2023-03-03T07:19:30.317Z,94.35
2023-03-03T07:24:31.776Z,94.59
2023-03-03T07:29:34.173Z,94.84
2023-03-03T07:34:43.912Z,95.01
2023-03-03T07:39:47.351Z,95.22
2023-03-03T07:44:52.380Z,94.15
2023-03-03T07:49:56.651Z,94.63
2023-03-03T07:55:01.960Z,94.58
2023-03-03T08:00:18.774Z,94.44
2023-03-03T08:05:20.810Z,94.60
2023-03-03T08:10:32.308Z,94.15
2023-03-03T08:15:37.938Z,94.57
2023-03-03T08:20:50.563Z,95.19
2023-03-03T08:25:53.722Z,94.40
2023-03-03T08:31:08.951Z,94.68
2023-03-03T08:36:16.636Z,94.74
2023-03-03T08:41:18.060Z,94.77
2023-03-03T08:46:19.584Z,95.15
2023-03-03T08:51:21.071Z,95.02
2023-03-03T08:56:22.593Z,95.01
2023-03-03T09:01:24.507Z,94.72
2023-03-03T09:06:26.052Z,94.96
2023-03-03T09:11:29.288Z,94.87
2023-03-03T09:16:34.898Z,95.41
2023-03-03T09:21:36.648Z,95.25
2023-03-03T09:26:52.916Z,95.11
2023-03-03T09:52:03.734Z,92.50
2023-03-03T09:57:24.813Z,92.91
2023-03-03T10:02:48.473Z,93.67
2023-03-03T10:13:27.410Z,93.74
2023-03-03T10:18:35.859Z,93.88
2023-03-03T10:24:01.492Z,94.03
2023-03-03T11:02:33.205Z,94.51
2023-03-03T11:22:53.164Z,94.56
2023-03-03T11:28:09.516Z,94.42
2023-03-03T11:33:34.678Z,94.46
2023-03-03T12:19:14.288Z,94.76
2023-03-03T12:24:29.643Z,95.18
2023-03-03T12:30:16.390Z,95.48
2023-03-03T12:35:39.167Z,94.87
2023-03-03T12:40:58.098Z,95.17
2023-03-03T12:46:02.422Z,94.92
2023-03-03T12:51:12.440Z,94.50
2023-03-03T12:56:26.619Z,94.65
2023-03-03T13:02:00.210Z,94.78
2023-03-03T13:07:01.986Z,94.67
2023-03-03T13:12:31.480Z,94.20
2023-03-03T13:17:49.431Z,94.59
2023-03-03T13:23:16.041Z,94.20
2023-03-03T13:28:33.960Z,94.51
2023-03-03T13:33:36.046Z,95.11
2023-03-03T13:38:43.036Z,93.93
2023-03-03T13:44:01.827Z,94.16
2023-03-03T13:49:25.378Z,94.10
2023-03-03T13:54:44.706Z,93.70
2023-03-03T14:00:06.531Z,93.48
2023-03-03T14:05:18.450Z,93.65
2023-03-03T14:10:28.903Z,94.19
2023-03-03T14:15:54.457Z,94.04
2023-03-03T14:21:18.858Z,94.01
2023-03-03T14:26:20.268Z,93.80
2023-03-03T14:31:25.080Z,94.02
2023-03-03T14:36:33.302Z,94.30
2023-03-03T14:41:40.185Z,93.89
2023-03-03T14:46:42.964Z,93.75
2023-03-03T14:51:49.669Z,93.38
2023-03-03T14:56:59.087Z,93.00
2023-03-03T15:02:16.002Z,93.11
2023-03-03T15:07:36.363Z,92.55
2023-03-03T15:12:40.615Z,92.44
2023-03-03T15:18:05.217Z,92.14
2023-03-03T15:23:19.440Z,91.90
2023-03-03T15:28:25.088Z,92.63
2023-03-03T15:33:41.638Z,91.35
2023-03-03T15:38:50.816Z,91.71
2023-03-03T15:44:07.075Z,92.10
2023-03-03T15:49:26.457Z,93.04
2023-03-03T15:54:36.777Z,93.22
2023-03-03T15:59:53.583Z,92.14
2023-03-03T16:05:03.090Z,92.32
2023-03-03T16:10:32.467Z,92.38
2023-03-03T16:16:01.382Z,93.34
2023-03-03T16:21:25.587Z,93.15
2023-03-03T16:26:43.334Z,92.97
2023-03-03T16:31:52.657Z,92.60
2023-03-03T16:37:04.545Z,92.87
2023-03-03T16:42:29.385Z,92.87
2023-03-03T16:47:39.838Z,92.70
2023-03-03T16:52:49.596Z,93.07
2023-03-03T16:58:00.060Z,93.03
2023-03-03T17:03:28.606Z,92.99
2023-03-03T17:08:48.279Z,93.32
2023-03-03T17:14:14.314Z,92.98
2023-03-03T17:19:40.181Z,93.01
2023-03-03T17:25:11.165Z,93.05
2023-03-03T17:30:49.571Z,93.40
2023-03-03T17:36:28.816Z,92.58
2023-03-03T17:41:33.238Z,93.20
2023-03-03T17:46:42.706Z,92.67
2023-03-03T17:52:07.194Z,92.59
2023-03-03T17:57:17.367Z,92.97
2023-03-03T18:02:37.098Z,92.71
2023-03-03T18:08:14.781Z,92.82
2023-03-03T18:13:57.398Z,92.94
2023-03-03T18:19:07.853Z,92.41
2023-03-03T18:24:33.302Z,92.78
2023-03-03T18:29:35.023Z,92.87
2023-03-03T18:34:39.990Z,92.42
2023-03-03T18:40:01.630Z,93.09
2023-03-03T18:45:29.504Z,92.83
2023-03-03T18:50:38.264Z,92.36
2023-03-03T18:55:47.889Z,92.56
2023-03-03T19:00:55.078Z,92.42
2023-03-03T19:06:01.399Z,92.72
2023-03-03T19:11:05.203Z,92.61
2023-03-03T19:16:39.513Z,92.66
2023-03-03T19:22:04.637Z,92.49
2023-03-03T19:27:36.749Z,92.43
2023-03-03T19:32:53.779Z,92.25
2023-03-03T19:38:14.694Z,92.40
2023-03-03T19:43:55.112Z,92.29
2023-03-03T19:49:25.357Z,92.78
2023-03-03T19:54:52.016Z,92.55
2023-03-03T20:00:12.700Z,92.42
2023-03-03T20:05:26.389Z,92.73
2023-03-03T20:10:54.241Z,92.37
2023-03-03T20:16:34.697Z,92.50
2023-03-03T20:21:46.509Z,92.32
2023-03-03T20:26:55.652Z,92.47
2023-03-03T20:32:11.417Z,92.66
2023-03-03T20:37:23.027Z,92.80
2023-03-03T20:42:52.787Z,92.59
2023-03-03T20:48:13.149Z,92.56
2023-03-03T20:53:17.692Z,92.58
2023-03-03T20:58:57.823Z,92.68
2023-03-03T21:04:21.540Z,92.42
2023-03-03T21:09:28.446Z,92.92
2023-03-03T21:14:37.758Z,92.85
2023-03-03T21:19:39.621Z,92.58
2023-03-03T21:25:06.185Z,92.73
2023-03-03T21:30:08.907Z,92.89
2023-03-03T21:35:18.917Z,93.26
2023-03-03T21:40:25.840Z,92.52
2023-03-03T21:45:30.002Z,92.44
2023-03-03T21:50:32.612Z,92.74
2023-03-03T21:55:34.063Z,93.59
2023-03-03T22:00:35.476Z,93.45
2023-03-03T22:05:36.915Z,93.30
2023-03-03T22:10:38.939Z,93.02
2023-03-03T22:15:40.362Z,92.89
2023-03-03T22:20:41.772Z,93.33
2023-03-03T22:25:43.184Z,93.26
2023-03-03T22:30:44.634Z,93.29
2023-03-03T22:35:46.401Z,93.14
2023-03-03T22:40:47.903Z,93.11
2023-03-03T22:45:50.442Z,93.00
2023-03-03T22:50:52.457Z,92.80
2023-03-03T22:55:54.266Z,93.26
2023-03-03T23:00:55.816Z,93.25
2023-03-03T23:05:57.222Z,93.48
2023-03-03T23:10:58.642Z,93.35
2023-03-03T23:16:00.232Z,93.55
2023-03-03T23:21:01.775Z,93.21
2023-03-03T23:26:03.527Z,93.33
2023-03-03T23:31:05.082Z,93.60
2023-03-03T23:36:07.023Z,93.28
2023-03-03T23:41:08.473Z,93.48
2023-03-03T23:46:09.983Z,93.31
2023-03-03T23:51:11.406Z,93.56
2023-03-03T23:56:12.804Z,93.17
